Crosbyton, Texas
Current Conditions -  °F | °C
As of 2:53 AM on Wednesday 22 Oct 2014 (Local Time) from KLBB Reporting Station
Overcast Overcast  
Wind Chill: 63°   Ceiling: 10000
Heat Index: 63°   Visibility: 10mi
Dew Point: 50°   Wind: 12mph
Humidity: 63%   Direction: 180°S
Pressure: 30.09"   Gusts: NA
Location:  33.66°N, 101.24°W
Report Text: KLBB 220753Z 18010KT 10SM SCT055 BKN100 OVC190 17/10 A3009 RMK AO2 SLP147 T01720100
Loading
Personal Weather Stations






























Interactive Weather Map
Tropical Storm Tracking
New forecast layout! Learn more

10-Day Weather Forecast

Advertisements
Track Severe Weather on mobile